Time;durP1;ratioP1;P1;durP2;ratioP2;P2;SDS_P1;SDS_P2;PMS_P1;PMS_P2;Temp;Humidity;BMP_temperature;BMP_pressure;BME280_temperature;BME280_humidity;BME280_pressure;Samples;Min_cycle;Max_cycle;Signal;HPM_P1;HPM_P2
2023/08/04 06:02:17;;;;;;;19.13;5.45;;;;;;;;;;5028389;23;20082;-87
2023/08/04 06:04:43;;;;;;;18.00;5.20;;;;;;;;;;4915469;29;20040;-87
2023/08/04 06:07:08;;;;;;;18.02;5.03;;;;;;;;;;4914296;29;20516;-87
2023/08/04 06:09:33;;;;;;;18.98;5.72;;;;;;;;;;4915419;29;20040;-87
2023/08/04 06:11:59;;;;;;;17.02;5.75;;;;;;;;;;4915544;29;20118;-87
2023/08/04 06:14:24;;;;;;;19.95;5.20;;;;;;;;;;4914705;29;20055;-88
2023/08/04 06:16:49;;;;;;;21.05;5.35;;;;;;;;;;4915125;29;20063;-87
2023/08/04 06:19:15;;;;;;;24.77;5.40;;;;;;;;;;4914598;29;20040;-87
2023/08/04 06:21:40;;;;;;;21.20;5.50;;;;;;;;;;4915295;29;20048;-87
2023/08/04 06:24:05;;;;;;;23.98;5.85;;;;;;;;;;4913293;29;20040;-86
2023/08/04 06:26:31;;;;;;;23.27;5.85;;;;;;;;;;4915000;29;20043;-87
2023/08/04 06:28:56;;;;;;;14.18;4.82;;;;;;;;;;4913353;29;20126;-87
2023/08/04 06:31:21;;;;;;;17.52;5.00;;;;;;;;;;4914027;29;20076;-88
2023/08/04 06:33:47;;;;;;;27.70;6.00;;;;;;;;;;4915267;29;20043;-88
2023/08/04 06:36:12;;;;;;;23.30;6.38;;;;;;;;;;4914340;29;20087;-87
2023/08/04 06:38:37;;;;;;;18.27;5.82;;;;;;;;;;4914959;29;20059;-87
2023/08/04 06:41:03;;;;;;;25.63;6.65;;;;;;;;;;4914619;29;20429;-87
2023/08/04 06:43:28;;;;;;;26.52;5.70;;;;;;;;;;4914729;29;20103;-87
2023/08/04 06:45:53;;;;;;;22.73;5.68;;;;;;;;;;4914671;29;20062;-87
2023/08/04 06:48:19;;;;;;;19.38;5.15;;;;;;;;;;4914079;29;20424;-89
2023/08/04 06:50:44;;;;;;;21.55;6.10;;;;;;;;;;4906563;29;20131;-85
2023/08/04 06:53:10;;;;;;;20.10;5.72;;;;;;;;;;4908966;29;20044;-85
2023/08/04 06:55:35;;;;;;;21.88;5.78;;;;;;;;;;4914473;29;20390;-86
2023/08/04 06:58:01;;;;;;;22.40;5.18;;;;;;;;;;4914731;29;20048;-86
2023/08/04 07:00:27;;;;;;;23.42;5.65;;;;;;;;;;4913442;29;20449;-86
2023/08/04 07:02:52;;;;;;;20.30;5.82;;;;;;;;;;4921786;29;20059;-88
2023/08/04 07:05:17;;;;;;;26.27;5.53;;;;;;;;;;4922368;29;20059;-87
2023/08/04 07:07:45;;;;;;;22.38;5.35;;;;;;;;;;4914433;29;20121;-88
2023/08/04 07:10:11;;;;;;;21.20;5.65;;;;;;;;;;4914284;29;20087;-87
2023/08/04 07:12:36;;;;;;;23.15;5.63;;;;;;;;;;4913419;29;20044;-88
2023/08/04 07:15:02;;;;;;;20.13;5.43;;;;;;;;;;4914218;29;20036;-88
2023/08/04 07:17:28;;;;;;;22.70;6.07;;;;;;;;;;4932286;29;20036;-86
2023/08/04 07:19:53;;;;;;;20.33;5.47;;;;;;;;;;4934656;29;20044;-87
2023/08/04 07:22:18;;;;;;;29.33;6.30;;;;;;;;;;4936955;29;20099;-88
2023/08/04 07:24:46;;;;;;;21.85;6.13;;;;;;;;;;4937237;29;20539;-87
2023/08/04 07:27:12;;;;;;;20.48;5.95;;;;;;;;;;4936491;29;20131;-86
2023/08/04 07:29:37;;;;;;;22.58;6.47;;;;;;;;;;4918962;29;20517;-87
2023/08/04 07:32:03;;;;;;;23.80;6.32;;;;;;;;;;4923800;29;20043;-88
2023/08/04 07:34:28;;;;;;;28.05;6.88;;;;;;;;;;4932111;29;20172;-87
2023/08/04 07:36:54;;;;;;;21.58;6.45;;;;;;;;;;4937349;29;20420;-88
2023/08/04 07:39:19;;;;;;;18.80;6.60;;;;;;;;;;4936235;29;20393;-88
2023/08/04 07:41:44;;;;;;;23.05;6.40;;;;;;;;;;4931956;29;20047;-87
2023/08/04 07:44:10;;;;;;;19.08;6.38;;;;;;;;;;4936352;29;20044;-85
2023/08/04 07:46:35;;;;;;;25.30;7.45;;;;;;;;;;4932040;29;20040;-87
2023/08/04 07:49:00;;;;;;;21.25;6.13;;;;;;;;;;4910638;29;20042;-87
2023/08/04 07:51:26;;;;;;;19.80;6.40;;;;;;;;;;4924615;29;20119;-85
2023/08/04 07:53:51;;;;;;;24.08;7.38;;;;;;;;;;4921661;29;20100;-85
2023/08/04 07:56:17;;;;;;;23.23;6.70;;;;;;;;;;4918195;29;20091;-86
2023/08/04 07:58:43;;;;;;;20.70;6.35;;;;;;;;;;4936654;29;20071;-92
2023/08/04 08:01:09;;;;;;;21.23;6.20;;;;;;;;;;4931290;29;20067;-89
2023/08/04 08:03:35;;;;;;;19.17;6.55;;;;;;;;;;4936832;29;20530;-90
2023/08/04 08:06:02;;;;;;;23.63;6.72;;;;;;;;;;4938743;29;20067;-92
2023/08/04 08:08:27;;;;;;;20.40;6.43;;;;;;;;;;4939073;29;20043;-90
2023/08/04 08:10:54;;;;;;;20.98;6.45;;;;;;;;;;4938714;29;20103;-90
2023/08/04 08:13:19;;;;;;;31.33;6.72;;;;;;;;;;4936894;29;20571;-89
2023/08/04 08:15:45;;;;;;;26.13;7.13;;;;;;;;;;4937585;29;20044;-90
2023/08/04 08:18:10;;;;;;;18.73;6.15;;;;;;;;;;4935433;29;20048;-87
2023/08/04 08:20:40;;;;;;;21.52;5.55;;;;;;;;;;4926573;29;20048;-90
2023/08/04 08:23:05;;;;;;;20.92;6.22;;;;;;;;;;4919639;29;20048;-88
2023/08/04 08:25:31;;;;;;;16.05;5.68;;;;;;;;;;4919547;29;20526;-88
2023/08/04 08:27:56;;;;;;;24.85;5.47;;;;;;;;;;4919130;29;20095;-89
2023/08/04 08:30:22;;;;;;;15.73;5.07;;;;;;;;;;4933947;29;20464;-90
2023/08/04 08:32:47;;;;;;;16.55;5.45;;;;;;;;;;4936268;29;20526;-89
2023/08/04 08:35:13;;;;;;;18.75;4.70;;;;;;;;;;4934705;29;20533;-90
2023/08/04 08:37:38;;;;;;;17.35;5.47;;;;;;;;;;4923212;29;20048;-87
2023/08/04 08:40:04;;;;;;;24.00;4.80;;;;;;;;;;4933139;29;20504;-89
2023/08/04 08:42:32;;;;;;;17.85;4.93;;;;;;;;;;4933125;29;20051;-88
2023/08/04 08:44:57;;;;;;;18.90;4.63;;;;;;;;;;4932704;29;20044;-88
2023/08/04 08:47:28;;;;;;;15.05;4.82;;;;;;;;;;4918410;29;20111;-89
2023/08/04 08:49:58;;;;;;;19.55;5.07;;;;;;;;;;4918212;29;20054;-89
2023/08/04 08:52:26;;;;;;;16.20;4.65;;;;;;;;;;4917492;29;20048;-89
2023/08/04 08:54:53;;;;;;;17.05;5.18;;;;;;;;;;4930307;29;20099;-89
2023/08/04 08:57:18;;;;;;;20.67;5.38;;;;;;;;;;4933702;29;20430;-87
2023/08/04 08:59:44;;;;;;;20.05;3.97;;;;;;;;;;4918388;29;20148;-90
2023/08/04 09:02:13;;;;;;;21.83;4.85;;;;;;;;;;4951802;28;20054;-88
2023/08/04 09:04:39;;;;;;;15.02;3.92;;;;;;;;;;4933555;29;20044;-88
2023/08/04 09:07:05;;;;;;;16.50;4.45;;;;;;;;;;4939930;29;20044;-87
2023/08/04 09:09:33;;;;;;;15.55;3.90;;;;;;;;;;4942141;29;20054;-88
2023/08/04 09:11:59;;;;;;;15.57;4.00;;;;;;;;;;4917507;29;20043;-88
2023/08/04 09:14:24;;;;;;;15.15;4.35;;;;;;;;;;4917426;29;20048;-87
2023/08/04 09:16:50;;;;;;;19.02;4.97;;;;;;;;;;4929979;29;20040;-91
2023/08/04 09:19:15;;;;;;;16.98;4.45;;;;;;;;;;4934216;29;20059;-87
2023/08/04 09:21:41;;;;;;;15.00;3.90;;;;;;;;;;4935093;29;20045;-87
2023/08/04 09:24:11;;;;;;;17.77;4.53;;;;;;;;;;4934761;29;20035;-87
2023/08/04 09:26:46;;;;;;;13.00;3.83;;;;;;;;;;4919808;29;20056;-90
2023/08/04 09:29:14;;;;;;;20.08;4.20;;;;;;;;;;4914962;29;20525;-89
2023/08/04 09:31:41;;;;;;;13.43;3.95;;;;;;;;;;4919109;29;20059;-86
2023/08/04 09:34:08;;;;;;;18.60;4.50;;;;;;;;;;4934965;29;20500;-88
2023/08/04 09:36:44;;;;;;;17.15;4.78;;;;;;;;;;4920006;29;20131;-88
2023/08/04 09:39:10;;;;;;;15.55;4.85;;;;;;;;;;4921869;29;20175;-90
2023/08/04 09:41:44;;;;;;;14.90;4.60;;;;;;;;;;4935582;29;20134;-91
2023/08/04 09:44:10;;;;;;;19.58;4.50;;;;;;;;;;4934359;29;20047;-87
2023/08/04 09:46:49;;;;;;;18.42;4.35;;;;;;;;;;4922126;29;20401;-88
2023/08/04 09:49:15;;;;;;;14.00;4.38;;;;;;;;;;4916350;29;20460;-87
2023/08/04 09:51:41;;;;;;;14.38;4.30;;;;;;;;;;4922202;29;20067;-87
2023/08/04 09:54:07;;;;;;;10.60;3.30;;;;;;;;;;4919218;29;20044;-87
2023/08/04 09:56:33;;;;;;;10.40;3.35;;;;;;;;;;4913628;29;20048;-86
2023/08/04 09:58:59;;;;;;;10.50;3.30;;;;;;;;;;4922543;29;20050;-86
2023/08/04 10:01:25;;;;;;;9.32;3.10;;;;;;;;;;4934262;29;20039;-90
2023/08/04 10:03:53;;;;;;;9.18;3.50;;;;;;;;;;4917243;29;20472;-88
2023/08/04 10:06:20;;;;;;;9.77;3.25;;;;;;;;;;4933935;29;20044;-89
2023/08/04 10:08:48;;;;;;;11.65;3.53;;;;;;;;;;4917371;29;20130;-89
2023/08/04 10:11:13;;;;;;;9.80;3.10;;;;;;;;;;4934035;29;20496;-88
2023/08/04 10:13:48;;;;;;;8.27;2.92;;;;;;;;;;4913606;29;20287;-90
2023/08/04 10:16:15;;;;;;;8.38;2.95;;;;;;;;;;4907272;29;20577;-89
2023/08/04 10:19:03;;;;;;;9.68;3.63;;;;;;;;;;4916860;29;20127;-90
2023/08/04 10:21:37;;;;;;;8.02;2.72;;;;;;;;;;4930737;29;20496;-89
2023/08/04 10:24:04;;;;;;;12.13;2.88;;;;;;;;;;4946521;29;20048;-89
2023/08/04 10:26:34;;;;;;;9.07;3.00;;;;;;;;;;4915503;29;20047;-88
2023/08/04 10:29:03;;;;;;;9.82;3.10;;;;;;;;;;4933189;29;20048;-88
2023/08/04 10:31:46;;;;;;;11.00;3.20;;;;;;;;;;4928665;29;20480;-89
2023/08/04 10:34:18;;;;;;;13.52;3.95;;;;;;;;;;4930165;29;20070;-88
2023/08/04 10:37:17;;;;;;;11.13;2.85;;;;;;;;;;4932547;29;20046;-88
2023/08/04 10:39:48;;;;;;;;;;;;;;;;;;4920722;29;20107;-90
2023/08/04 10:42:20;;;;;;;10.23;2.88;;;;;;;;;;4928685;29;19972;-87
2023/08/04 10:45:05;;;;;;;9.90;3.05;;;;;;;;;;4932466;29;20047;-87
2023/08/04 10:47:40;;;;;;;9.23;2.95;;;;;;;;;;4930307;29;20058;-85
2023/08/04 10:50:07;;;;;;;12.80;2.95;;;;;;;;;;4930271;29;20508;-85
2023/08/04 10:52:34;;;;;;;9.68;3.20;;;;;;;;;;4929768;29;20046;-87
2023/08/04 10:55:00;;;;;;;11.57;3.00;;;;;;;;;;4919941;29;20063;-85
2023/08/04 10:57:28;;;;;;;11.18;3.30;;;;;;;;;;4927062;29;20106;-87
2023/08/04 10:59:54;;;;;;;10.90;2.83;;;;;;;;;;4929208;29;20040;-87
2023/08/04 11:02:21;;;;;;;12.23;3.17;;;;;;;;;;4929697;29;20047;-86
2023/08/04 11:04:47;;;;;;;9.43;2.72;;;;;;;;;;4934126;29;20044;-87
2023/08/04 11:07:17;;;;;;;10.80;2.97;;;;;;;;;;4936069;29;20118;-87
2023/08/04 11:09:44;;;;;;;10.45;3.10;;;;;;;;;;4922337;29;20044;-88
2023/08/04 11:12:10;;;;;;;9.60;2.92;;;;;;;;;;4920509;29;20650;-87
2023/08/04 11:14:36;;;;;;;8.70;2.75;;;;;;;;;;4932740;29;20140;-87
2023/08/04 11:17:02;;;;;;;13.90;3.47;;;;;;;;;;4935813;29;20044;-86
2023/08/04 11:19:28;;;;;;;12.80;2.92;;;;;;;;;;4926751;29;20047;-89
2023/08/04 11:21:54;;;;;;;8.13;2.78;;;;;;;;;;4919135;29;20055;-87
2023/08/04 11:24:24;;;;;;;10.48;3.50;;;;;;;;;;4919246;29;20040;-88
2023/08/04 11:26:51;;;;;;;13.27;3.72;;;;;;;;;;4927625;29;20067;-88
2023/08/04 11:29:17;;;;;;;11.32;3.40;;;;;;;;;;4935012;29;20054;-88
2023/08/04 11:31:43;;;;;;;9.93;3.08;;;;;;;;;;4936772;29;20144;-90
2023/08/04 11:34:14;;;;;;;12.57;3.28;;;;;;;;;;4933155;29;20128;-86
2023/08/04 11:36:40;;;;;;;7.82;2.85;;;;;;;;;;4924380;29;20052;-89
2023/08/04 11:39:06;;;;;;;8.90;2.75;;;;;;;;;;4931502;29;20066;-88
2023/08/04 11:41:32;;;;;;;10.35;3.00;;;;;;;;;;4935805;29;20047;-91
2023/08/04 11:43:59;;;;;;;9.60;2.83;;;;;;;;;;4923920;29;20071;-88
2023/08/04 11:46:24;;;;;;;11.05;3.13;;;;;;;;;;4933483;29;20063;-88
2023/08/04 11:48:50;;;;;;;9.02;2.90;;;;;;;;;;4935603;29;20526;-89
2023/08/04 11:51:15;;;;;;;10.02;2.50;;;;;;;;;;4924174;29;20123;-90
2023/08/04 11:53:44;;;;;;;12.70;2.90;;;;;;;;;;4916048;29;20531;-88
2023/08/04 11:56:09;;;;;;;12.18;2.92;;;;;;;;;;4926302;29;20108;-88
2023/08/04 11:58:37;;;;;;;13.75;2.78;;;;;;;;;;4936932;29;20119;-88
2023/08/04 12:01:04;;;;;;;11.67;2.90;;;;;;;;;;4932567;29;20442;-88
2023/08/04 12:03:43;;;;;;;11.10;2.75;;;;;;;;;;4929640;29;20180;-89
2023/08/04 12:06:13;;;;;;;14.40;3.53;;;;;;;;;;4928338;29;20130;-90
2023/08/04 12:08:39;;;;;;;10.77;2.80;;;;;;;;;;4920963;29;20077;-92
2023/08/04 12:11:04;;;;;;;12.90;3.08;;;;;;;;;;4927930;29;20503;-85
2023/08/04 12:13:35;;;;;;;11.02;3.22;;;;;;;;;;4949111;29;20066;-88
2023/08/04 12:16:01;;;;;;;14.45;2.80;;;;;;;;;;4936827;29;20516;-87
2023/08/04 12:18:28;;;;;;;11.80;3.20;;;;;;;;;;4935781;29;20044;-89
2023/08/04 12:20:54;;;;;;;12.45;2.92;;;;;;;;;;4935926;29;20052;-90
2023/08/04 12:23:19;;;;;;;7.70;2.45;;;;;;;;;;4938339;29;20048;-90
2023/08/04 12:25:45;;;;;;;8.02;2.65;;;;;;;;;;4937137;29;20199;-89
2023/08/04 12:28:11;;;;;;;13.02;3.17;;;;;;;;;;4935557;29;20063;-89
2023/08/04 12:30:37;;;;;;;14.75;3.15;;;;;;;;;;4938112;29;20051;-89
2023/08/04 12:33:02;;;;;;;10.57;2.92;;;;;;;;;;4936183;29;20040;-91
2023/08/04 12:35:28;;;;;;;11.23;2.90;;;;;;;;;;4936492;29;20090;-86
2023/08/04 12:37:53;;;;;;;10.35;2.95;;;;;;;;;;4935792;29;20048;-88
2023/08/04 12:40:19;;;;;;;11.32;3.35;;;;;;;;;;4935469;29;20050;-88
2023/08/04 12:42:44;;;;;;;12.63;2.67;;;;;;;;;;4936894;29;20070;-88
2023/08/04 12:45:09;;;;;;;10.82;2.97;;;;;;;;;;4935305;29;20036;-87
2023/08/04 12:47:35;;;;;;;9.40;2.78;;;;;;;;;;4935793;29;20385;-87
2023/08/04 12:50:00;;;;;;;11.05;2.60;;;;;;;;;;4935758;29;20035;-89
2023/08/04 12:52:26;;;;;;;10.63;2.70;;;;;;;;;;4935359;29;20047;-88
2023/08/04 12:54:51;;;;;;;8.93;2.72;;;;;;;;;;4919238;29;20043;-88
2023/08/04 12:57:16;;;;;;;9.82;2.95;;;;;;;;;;4935159;29;20050;-87
2023/08/04 12:59:42;;;;;;;6.25;2.67;;;;;;;;;;4936313;29;20099;-90
2023/08/04 13:02:07;;;;;;;10.63;3.10;;;;;;;;;;4935668;29;20035;-92
2023/08/04 13:04:33;;;;;;;11.40;3.00;;;;;;;;;;4937017;29;20059;-92
2023/08/04 13:07:01;;;;;;;10.95;2.60;;;;;;;;;;4936496;29;20051;-92
2023/08/04 13:09:26;;;;;;;8.65;2.83;;;;;;;;;;4937246;29;20539;-92
2023/08/04 13:11:53;;;;;;;7.25;2.47;;;;;;;;;;4919102;29;20043;-92
2023/08/04 13:14:18;;;;;;;11.10;2.65;;;;;;;;;;4936696;29;20047;-91
2023/08/04 13:16:44;;;;;;;10.35;3.22;;;;;;;;;;4936060;29;20102;-91
2023/08/04 13:19:09;;;;;;;10.68;2.75;;;;;;;;;;4937098;29;20048;-89
2023/08/04 13:21:34;;;;;;;8.27;2.83;;;;;;;;;;4937429;29;20099;-92
2023/08/04 13:24:00;;;;;;;11.50;3.30;;;;;;;;;;4936779;29;20039;-91
2023/08/04 13:26:25;;;;;;;8.52;3.13;;;;;;;;;;4936047;29;20122;-90
2023/08/04 13:28:51;;;;;;;9.55;2.88;;;;;;;;;;4936005;29;20064;-91
2023/08/04 13:31:16;;;;;;;14.98;3.38;;;;;;;;;;4935652;29;20043;-86
2023/08/04 13:33:41;;;;;;;8.93;2.80;;;;;;;;;;4933074;29;20060;-85
2023/08/04 13:36:07;;;;;;;9.45;2.85;;;;;;;;;;4934055;29;20044;-86
2023/08/04 13:38:32;;;;;;;12.07;2.92;;;;;;;;;;4934562;29;20054;-85
2023/08/04 13:40:58;;;;;;;13.05;2.97;;;;;;;;;;4917897;29;20055;-86
2023/08/04 13:43:23;;;;;;;11.88;3.42;;;;;;;;;;4935034;29;20056;-87
2023/08/04 13:45:48;;;;;;;9.77;2.92;;;;;;;;;;4935083;29;20051;-86
2023/08/04 13:48:14;;;;;;;12.68;3.20;;;;;;;;;;4934408;29;20054;-87
2023/08/04 13:50:39;;;;;;;11.13;3.38;;;;;;;;;;4934716;29;20094;-85
2023/08/04 13:53:04;;;;;;;11.50;3.95;;;;;;;;;;4934209;29;20054;-88
2023/08/04 13:55:30;;;;;;;8.88;2.95;;;;;;;;;;4934765;29;20060;-86
2023/08/04 13:57:55;;;;;;;14.95;4.05;;;;;;;;;;4934709;29;20043;-86
2023/08/04 14:00:20;;;;;;;13.63;3.90;;;;;;;;;;4933553;29;20403;-86
2023/08/04 14:02:46;;;;;;;14.27;3.17;;;;;;;;;;4934485;29;20130;-85
2023/08/04 14:05:11;;;;;;;12.60;3.63;;;;;;;;;;4916534;29;20047;-88
2023/08/04 14:07:42;;;;;;;11.85;3.28;;;;;;;;;;4934327;29;20432;-85
2023/08/04 14:10:09;;;;;;;14.40;3.78;;;;;;;;;;4933692;29;20044;-85
2023/08/04 14:12:35;;;;;;;10.57;3.60;;;;;;;;;;4934436;29;20044;-85
2023/08/04 14:15:00;;;;;;;11.80;3.35;;;;;;;;;;4916977;29;20095;-84
2023/08/04 14:17:26;;;;;;;13.43;3.50;;;;;;;;;;4933685;29;20051;-87
2023/08/04 14:19:51;;;;;;;12.55;3.80;;;;;;;;;;4934408;29;20122;-87
2023/08/04 14:22:16;;;;;;;13.57;3.75;;;;;;;;;;4941242;29;20476;-87
2023/08/04 14:24:42;;;;;;;13.75;4.13;;;;;;;;;;4934570;29;20070;-86
2023/08/04 14:27:07;;;;;;;9.93;3.70;;;;;;;;;;4933508;29;20043;-86
2023/08/04 14:29:33;;;;;;;18.60;4.43;;;;;;;;;;4933854;29;20035;-86
2023/08/04 14:31:59;;;;;;;15.30;3.92;;;;;;;;;;4933809;29;20548;-87
2023/08/04 14:34:24;;;;;;;10.98;3.83;;;;;;;;;;4935216;29;20044;-88
2023/08/04 14:36:50;;;;;;;10.25;3.10;;;;;;;;;;4933890;29;20531;-88
2023/08/04 14:39:17;;;;;;;12.23;3.28;;;;;;;;;;4939337;29;20047;-89
2023/08/04 14:41:42;;;;;;;8.73;3.28;;;;;;;;;;4933807;28;20448;-89
2023/08/04 14:44:07;;;;;;;9.65;3.20;;;;;;;;;;4934310;28;20076;-89
2023/08/04 14:46:33;;;;;;;9.93;3.60;;;;;;;;;;4934500;28;20497;-90
2023/08/04 14:48:58;;;;;;;15.27;3.60;;;;;;;;;;4934296;28;20062;-89
2023/08/04 14:51:30;;;;;;;9.27;3.55;;;;;;;;;;4933236;28;20515;-90
2023/08/04 14:53:55;;;;;;;11.65;3.40;;;;;;;;;;4939379;28;20111;-87
2023/08/04 14:56:22;;;;;;;14.07;4.00;;;;;;;;;;4927359;29;20056;-89
2023/08/04 14:58:48;;;;;;;15.18;4.45;;;;;;;;;;4940354;28;20107;-88
2023/08/04 15:01:13;;;;;;;12.20;4.03;;;;;;;;;;4922983;29;20087;-88
2023/08/04 15:03:39;;;;;;;12.48;3.65;;;;;;;;;;4944497;29;20055;-89
2023/08/04 15:06:10;;;;;;;10.88;3.97;;;;;;;;;;4931326;28;20425;-89
2023/08/04 15:08:35;;;;;;;11.48;3.63;;;;;;;;;;4932679;28;20043;-88
2023/08/04 15:11:00;;;;;;;11.50;3.75;;;;;;;;;;4917694;29;20055;-92
2023/08/04 15:13:26;;;;;;;9.63;3.22;;;;;;;;;;4918176;28;20047;-91
2023/08/04 15:15:51;;;;;;;14.75;4.10;;;;;;;;;;4918551;29;20047;-93
2023/08/04 15:18:16;;;;;;;12.32;4.13;;;;;;;;;;4917498;29;20517;-89
2023/08/04 15:20:45;;;;;;;9.50;3.70;;;;;;;;;;4920087;29;20181;-87
2023/08/04 15:23:10;;;;;;;10.57;3.38;;;;;;;;;;4933804;28;20043;-91
2023/08/04 15:25:35;;;;;;;13.60;4.53;;;;;;;;;;4933007;28;20043;-89
2023/08/04 15:28:01;;;;;;;13.50;3.90;;;;;;;;;;4913312;29;20050;-89
2023/08/04 15:30:33;;;;;;;12.02;3.90;;;;;;;;;;4930573;28;20068;-89
2023/08/04 15:32:58;;;;;;;13.38;4.25;;;;;;;;;;4929898;28;20040;-92
2023/08/04 15:35:24;;;;;;;11.68;3.88;;;;;;;;;;4932886;28;20050;-90
2023/08/04 15:37:49;;;;;;;12.30;3.90;;;;;;;;;;4927864;28;20504;-90
2023/08/04 15:40:14;;;;;;;11.73;3.67;;;;;;;;;;4914952;28;20416;-88
2023/08/04 15:42:40;;;;;;;10.13;3.58;;;;;;;;;;4938102;28;20048;-90
2023/08/04 15:45:06;;;;;;;13.88;3.90;;;;;;;;;;4925418;29;20038;-88
2023/08/04 15:47:32;;;;;;;10.15;4.03;;;;;;;;;;4930050;29;20092;-88
2023/08/04 15:49:57;;;;;;;11.35;4.15;;;;;;;;;;4918066;29;20528;-89
2023/08/04 15:52:23;;;;;;;15.68;5.05;;;;;;;;;;4936484;29;20225;-90
2023/08/04 15:54:48;;;;;;;12.98;4.15;;;;;;;;;;4942628;29;20044;-89
2023/08/04 15:57:14;;;;;;;11.82;4.55;;;;;;;;;;4950488;28;20600;-88
2023/08/04 15:59:39;;;;;;;11.15;3.88;;;;;;;;;;4936010;28;20047;-89
2023/08/04 16:02:05;;;;;;;13.02;3.90;;;;;;;;;;4937124;29;20050;-89
2023/08/04 16:04:30;;;;;;;12.23;3.75;;;;;;;;;;4938059;28;20187;-90
2023/08/04 16:06:56;;;;;;;15.05;3.88;;;;;;;;;;4938207;29;20039;-89
2023/08/04 16:09:21;;;;;;;13.20;4.03;;;;;;;;;;4919074;28;20483;-88
2023/08/04 16:11:47;;;;;;;10.93;4.00;;;;;;;;;;4936138;29;20536;-87
2023/08/04 16:14:12;;;;;;;13.80;4.05;;;;;;;;;;4936658;29;20241;-88
2023/08/04 16:16:38;;;;;;;11.93;3.88;;;;;;;;;;4919059;29;20747;-89
2023/08/04 16:19:03;;;;;;;19.48;4.43;;;;;;;;;;4935843;29;20048;-87
2023/08/04 16:21:28;;;;;;;14.18;4.35;;;;;;;;;;4918395;29;20059;-88
2023/08/04 16:23:54;;;;;;;13.70;4.55;;;;;;;;;;4936901;29;20432;-88
2023/08/04 16:26:20;;;;;;;16.17;4.75;;;;;;;;;;4934571;29;20050;-88
2023/08/04 16:28:45;;;;;;;10.45;4.20;;;;;;;;;;4928338;29;20043;-89
2023/08/04 16:31:11;;;;;;;10.27;3.75;;;;;;;;;;4930934;28;20461;-87
2023/08/04 16:33:37;;;;;;;11.02;4.20;;;;;;;;;;4923288;29;20056;-89
2023/08/04 16:36:02;;;;;;;11.80;4.53;;;;;;;;;;4925606;29;20135;-91
2023/08/04 16:38:28;;;;;;;13.27;4.55;;;;;;;;;;4927294;29;20504;-89
2023/08/04 16:40:55;;;;;;;13.10;3.83;;;;;;;;;;4917173;29;20087;-89
2023/08/04 16:43:20;;;;;;;17.90;3.80;;;;;;;;;;4932355;29;20135;-90
2023/08/04 16:45:45;;;;;;;12.60;3.58;;;;;;;;;;4921935;29;20134;-87
2023/08/04 16:48:11;;;;;;;11.13;4.00;;;;;;;;;;4937256;29;20048;-89
2023/08/04 16:50:36;;;;;;;10.98;4.13;;;;;;;;;;4920963;29;20476;-90
2023/08/04 16:53:02;;;;;;;12.98;3.95;;;;;;;;;;4915510;29;20406;-90
2023/08/04 16:55:31;;;;;;;11.88;3.95;;;;;;;;;;4914983;29;20468;-89
2023/08/04 16:57:57;;;;;;;12.18;3.75;;;;;;;;;;4931240;29;20043;-88
2023/08/04 17:00:23;;;;;;;11.07;3.63;;;;;;;;;;4921338;29;20050;-89
2023/08/04 17:02:49;;;;;;;11.50;3.92;;;;;;;;;;4914091;29;20048;-89
2023/08/04 17:05:15;;;;;;;10.77;3.47;;;;;;;;;;4924030;29;20036;-89
2023/08/04 17:07:40;;;;;;;8.43;3.10;;;;;;;;;;4914345;29;20047;-91
2023/08/04 17:10:06;;;;;;;10.70;3.70;;;;;;;;;;4909839;29;20425;-89
2023/08/04 17:12:32;;;;;;;13.25;3.65;;;;;;;;;;4927517;29;20048;-90
2023/08/04 17:14:57;;;;;;;14.05;3.78;;;;;;;;;;4910603;29;20483;-91
2023/08/04 17:17:23;;;;;;;9.55;3.75;;;;;;;;;;4932804;29;20163;-90
2023/08/04 17:19:48;;;;;;;14.32;4.10;;;;;;;;;;4928193;29;20063;-90
2023/08/04 17:22:14;;;;;;;14.15;3.58;;;;;;;;;;4939805;29;20039;-89
2023/08/04 17:24:39;;;;;;;12.95;4.10;;;;;;;;;;4917812;29;20044;-88
2023/08/04 17:27:06;;;;;;;14.90;4.70;;;;;;;;;;4917748;29;20420;-87
2023/08/04 17:29:33;;;;;;;13.95;4.47;;;;;;;;;;4929193;29;20047;-90
2023/08/04 17:31:58;;;;;;;15.73;4.80;;;;;;;;;;4929793;29;20047;-91
2023/08/04 17:34:23;;;;;;;14.80;4.50;;;;;;;;;;4923068;29;20159;-89
2023/08/04 17:36:49;;;;;;;12.88;4.80;;;;;;;;;;4928713;29;20047;-89
2023/08/04 17:39:14;;;;;;;13.23;4.25;;;;;;;;;;4942983;29;20043;-88
2023/08/04 17:41:39;;;;;;;12.05;4.32;;;;;;;;;;4924246;29;20476;-92
2023/08/04 17:44:05;;;;;;;14.25;4.20;;;;;;;;;;4922112;29;20425;-91
2023/08/04 17:46:30;;;;;;;12.65;4.85;;;;;;;;;;4933203;29;20379;-90
2023/08/04 17:48:57;;;;;;;12.55;4.35;;;;;;;;;;4931863;29;20078;-90
2023/08/04 17:51:22;;;;;;;12.65;4.53;;;;;;;;;;4925279;29;20043;-91
2023/08/04 17:53:47;;;;;;;14.63;5.07;;;;;;;;;;4933880;29;20051;-90
2023/08/04 17:56:13;;;;;;;12.40;5.00;;;;;;;;;;4915669;29;20044;-90
2023/08/04 17:58:38;;;;;;;12.88;4.80;;;;;;;;;;4930070;29;20050;-91
2023/08/04 18:01:07;;;;;;;9.45;4.38;;;;;;;;;;4926512;29;20124;-82
2023/08/04 18:03:33;;;;;;;;;;;;;;;;;;4918803;29;20154;-91
2023/08/04 18:06:01;;;;;;;14.05;4.75;;;;;;;;;;4934396;29;19962;-91
2023/08/04 18:08:27;;;;;;;13.48;5.28;;;;;;;;;;4947476;29;20062;-93
2023/08/04 18:10:52;;;;;;;15.43;5.30;;;;;;;;;;4934390;29;20035;-89
2023/08/04 18:13:21;;;;;;;16.45;5.63;;;;;;;;;;4934129;29;20063;-90
2023/08/04 18:15:51;;;;;;;16.40;5.65;;;;;;;;;;4929544;29;20052;-91
2023/08/04 18:18:17;;;;;;;17.40;5.85;;;;;;;;;;4933780;29;20055;-91
2023/08/04 18:20:42;;;;;;;13.95;5.88;;;;;;;;;;4937308;29;20063;-91
2023/08/04 18:23:10;;;;;;;18.20;6.50;;;;;;;;;;4935497;29;20052;-91
2023/08/04 18:25:37;;;;;;;18.15;6.82;;;;;;;;;;4918219;29;20074;-91
2023/08/04 18:28:03;;;;;;;17.23;6.18;;;;;;;;;;4931175;29;20051;-89
2023/08/04 18:30:29;;;;;;;19.33;6.20;;;;;;;;;;4940839;29;20146;-89
2023/08/04 18:32:54;;;;;;;13.52;5.80;;;;;;;;;;4928617;29;20122;-88
2023/08/04 18:35:20;;;;;;;17.52;6.72;;;;;;;;;;4927866;29;20040;-86
2023/08/04 18:37:45;;;;;;;22.58;6.43;;;;;;;;;;4942309;29;20504;-88
2023/08/04 18:40:11;;;;;;;22.45;6.65;;;;;;;;;;4933323;29;20044;-87
2023/08/04 18:42:39;;;;;;;16.20;6.45;;;;;;;;;;4923146;29;20789;-88
2023/08/04 18:45:06;;;;;;;14.93;6.80;;;;;;;;;;4927220;29;20135;-87
2023/08/04 18:47:32;;;;;;;23.20;6.75;;;;;;;;;;4929949;29;20052;-89
2023/08/04 18:49:57;;;;;;;15.73;6.80;;;;;;;;;;4933716;29;20059;-89
2023/08/04 18:52:23;;;;;;;18.52;6.40;;;;;;;;;;4917947;29;20075;-90
2023/08/04 18:54:48;;;;;;;22.13;7.00;;;;;;;;;;4932331;29;20031;-88
2023/08/04 18:57:13;;;;;;;16.63;5.68;;;;;;;;;;4948070;29;20039;-89
2023/08/04 18:59:39;;;;;;;18.77;7.03;;;;;;;;;;4928625;29;20067;-90
2023/08/04 19:02:05;;;;;;;14.98;6.15;;;;;;;;;;4926767;29;20118;-87
2023/08/04 19:04:31;;;;;;;15.10;6.72;;;;;;;;;;4938699;29;20052;-89
2023/08/04 19:06:56;;;;;;;19.70;6.65;;;;;;;;;;4936190;29;20474;-87
2023/08/04 19:09:22;;;;;;;18.27;6.53;;;;;;;;;;4911970;29;20054;-89
2023/08/04 19:11:49;;;;;;;17.05;6.45;;;;;;;;;;4942225;29;20075;-88
2023/08/04 19:14:15;;;;;;;16.60;6.47;;;;;;;;;;4929129;29;20071;-89
2023/08/04 19:16:40;;;;;;;16.38;6.85;;;;;;;;;;4928130;29;20162;-88
2023/08/04 19:19:06;;;;;;;17.67;6.93;;;;;;;;;;4911639;29;20056;-89
2023/08/04 19:21:31;;;;;;;15.15;6.35;;;;;;;;;;4904446;29;20040;-91
2023/08/04 19:23:57;;;;;;;15.20;7.50;;;;;;;;;;4927979;29;20054;-88
2023/08/04 19:26:22;;;;;;;15.98;6.72;;;;;;;;;;4926615;29;20719;-89
2023/08/04 19:28:48;;;;;;;18.60;6.85;;;;;;;;;;4925189;29;20642;-91
2023/08/04 19:31:13;;;;;;;16.02;6.30;;;;;;;;;;4923396;29;20047;-90
2023/08/04 19:33:39;;;;;;;16.60;6.28;;;;;;;;;;4917825;29;20049;-89
2023/08/04 19:36:04;;;;;;;15.18;6.97;;;;;;;;;;4924855;29;20119;-91
2023/08/04 19:38:30;;;;;;;18.38;6.43;;;;;;;;;;4957967;29;20043;-91
2023/08/04 19:40:57;;;;;;;15.00;6.88;;;;;;;;;;4922199;29;20047;-93
2023/08/04 19:43:24;;;;;;;17.00;6.57;;;;;;;;;;4933669;29;20055;-90
2023/08/04 19:46:04;;;;;;;20.77;7.55;;;;;;;;;;4946353;29;20058;-89
2023/08/04 19:48:30;;;;;;;17.20;7.35;;;;;;;;;;4923554;29;20048;-90
2023/08/04 19:50:56;;;;;;;14.68;6.90;;;;;;;;;;4933813;29;20040;-91
2023/08/04 19:53:23;;;;;;;15.48;7.00;;;;;;;;;;4937278;28;20036;-93
2023/08/04 19:56:23;;;;;;;21.90;7.22;;;;;;;;;;4921668;29;20056;-92
2023/08/04 19:58:48;;;;;;;17.30;7.88;;;;;;;;;;4918162;29;20056;-91
2023/08/04 20:01:14;;;;;;;22.58;8.00;;;;;;;;;;4935665;28;20119;-91
2023/08/04 20:03:39;;;;;;;16.58;8.00;;;;;;;;;;4911894;29;20085;-91
2023/08/04 20:06:05;;;;;;;16.88;8.07;;;;;;;;;;4925328;29;20457;-90
2023/08/04 20:08:31;;;;;;;21.02;7.78;;;;;;;;;;4915363;29;20043;-91
2023/08/04 20:11:02;;;;;;;19.52;8.05;;;;;;;;;;4904399;29;20550;-91
2023/08/04 20:13:29;;;;;;;21.35;8.48;;;;;;;;;;4912311;29;20048;-91
2023/08/04 20:16:09;;;;;;;16.70;8.18;;;;;;;;;;4932069;29;20047;-91
2023/08/04 20:18:35;;;;;;;20.70;7.70;;;;;;;;;;4956173;29;20529;-91
2023/08/04 20:21:00;;;;;;;20.00;7.68;;;;;;;;;;4945462;29;20081;-91
2023/08/04 20:23:36;;;;;;;15.70;8.48;;;;;;;;;;4932043;29;20110;-93
2023/08/04 20:26:04;;;;;;;17.75;7.97;;;;;;;;;;4936037;29;20568;-91
2023/08/04 20:28:30;;;;;;;21.00;8.20;;;;;;;;;;4920729;29;20135;-90
2023/08/04 20:31:00;;;;;;;21.83;9.35;;;;;;;;;;4908255;29;20215;-91